createdAt,value
2019-03-01T00:01:25.117Z,10.60
2019-03-01T00:04:19.467Z,10.60
2019-03-01T00:07:55.979Z,10.60
2019-03-01T00:11:11.658Z,10.60
2019-03-01T00:14:37.690Z,10.60
2019-03-01T00:17:54.409Z,10.50
2019-03-01T00:21:18.294Z,10.50
2019-03-01T00:24:57.398Z,10.40
2019-03-01T00:28:19.624Z,10.40
2019-03-01T00:31:53.620Z,10.40
2019-03-01T00:34:44.053Z,10.40
2019-03-01T00:37:58.219Z,10.40
2019-03-01T00:41:29.952Z,10.40
2019-03-01T00:44:35.007Z,10.40
2019-03-01T00:47:07.426Z,10.40
2019-03-01T00:49:38.610Z,10.40
2019-03-01T00:52:10.699Z,10.40
2019-03-01T00:54:42.866Z,10.40
2019-03-01T00:57:14.811Z,10.30
2019-03-01T00:59:46.179Z,10.30
2019-03-01T01:02:17.484Z,10.20
2019-03-01T01:04:48.801Z,10.20
2019-03-01T01:07:20.111Z,10.20
2019-03-01T01:09:51.418Z,10.20
2019-03-01T01:12:23.507Z,10.20
2019-03-01T01:14:55.290Z,10.30
2019-03-01T01:17:27.138Z,10.30
2019-03-01T01:19:59.836Z,10.20
2019-03-01T01:22:31.689Z,10.20
2019-03-01T01:25:03.274Z,10.10
2019-03-01T01:27:34.662Z,10.10
2019-03-01T01:30:17.671Z,10.20
2019-03-01T01:32:50.036Z,10.20
2019-03-01T01:35:23.874Z,10.20
2019-03-01T01:37:55.156Z,10.20
2019-03-01T01:40:26.251Z,10.20
2019-03-01T01:42:58.147Z,10.20
2019-03-01T01:45:30.568Z,10.20
2019-03-01T01:48:02.929Z,10.10
2019-03-01T01:50:34.542Z,10.10
2019-03-01T01:53:06.304Z,10.10
2019-03-01T01:55:37.612Z,10.10
2019-03-01T01:58:09.841Z,10.10
2019-03-01T02:00:41.883Z,10.10
2019-03-01T02:03:13.493Z,10.00
2019-03-01T02:05:45.713Z,10.00
2019-03-01T02:08:17.553Z,10.00
2019-03-01T02:10:49.176Z,10.10
2019-03-01T02:13:21.766Z,10.00
2019-03-01T02:15:53.041Z,10.00
2019-03-01T02:18:24.989Z,10.00
2019-03-01T02:20:57.171Z,10.00
2019-03-01T02:23:28.785Z,10.00
2019-03-01T02:26:00.643Z,10.00
2019-03-01T02:28:31.914Z,10.00
2019-03-01T02:31:05.497Z,10.00
2019-03-01T02:33:36.857Z,10.00
2019-03-01T02:36:08.816Z,10.00
2019-03-01T02:38:40.658Z,10.00
2019-03-01T02:41:12.004Z,10.00
2019-03-01T02:43:43.884Z,10.00
2019-03-01T02:46:15.555Z,10.00
2019-03-01T02:48:47.306Z,10.00
2019-03-01T02:51:18.614Z,9.90
2019-03-01T02:53:49.897Z,10.00
2019-03-01T02:56:21.211Z,9.90
2019-03-01T02:58:52.536Z,9.90
2019-03-01T03:01:23.909Z,9.90
2019-03-01T03:03:55.238Z,10.00
2019-03-01T03:06:38.333Z,10.00
2019-03-01T03:09:11.375Z,10.00
2019-03-01T03:11:42.717Z,9.90
2019-03-01T03:14:14.029Z,9.90
2019-03-01T03:16:45.839Z,9.90
2019-03-01T03:19:17.515Z,9.90
2019-03-01T03:21:49.468Z,9.90
2019-03-01T03:24:21.316Z,9.90
2019-03-01T03:26:52.864Z,9.90
2019-03-01T03:29:24.218Z,9.90
2019-03-01T03:31:55.522Z,9.90
2019-03-01T03:34:27.264Z,9.90
2019-03-01T03:36:58.877Z,9.90
2019-03-01T03:39:31.031Z,9.90
2019-03-01T03:42:02.335Z,9.90
2019-03-01T03:44:34.397Z,9.90
2019-03-01T03:47:06.285Z,9.90
2019-03-01T03:49:38.171Z,9.90
2019-03-01T03:52:09.791Z,9.90
2019-03-01T03:54:41.351Z,9.80
2019-03-01T03:57:12.891Z,9.80
2019-03-01T03:59:45.018Z,9.90
2019-03-01T04:02:16.818Z,9.90
2019-03-01T04:04:48.701Z,9.80
2019-03-01T04:07:20.994Z,9.80
2019-03-01T04:09:52.865Z,9.80
2019-03-01T04:12:24.617Z,9.70
2019-03-01T04:14:55.981Z,9.70
2019-03-01T04:17:27.382Z,9.70
2019-03-01T04:19:59.196Z,9.70
2019-03-01T04:22:30.555Z,9.80
2019-03-01T04:25:02.224Z,9.80
2019-03-01T04:27:34.280Z,9.80
2019-03-01T04:30:07.960Z,9.80
2019-03-01T04:32:39.390Z,9.80
2019-03-01T04:35:11.516Z,9.80
2019-03-01T04:37:43.019Z,9.80
2019-03-01T04:40:15.736Z,9.70
2019-03-01T04:42:47.717Z,9.70
2019-03-01T04:45:18.846Z,9.70
2019-03-01T04:47:50.408Z,9.70
2019-03-01T04:50:22.189Z,9.70
2019-03-01T04:52:53.416Z,9.70
2019-03-01T04:55:26.344Z,9.70
2019-03-01T04:57:58.092Z,9.60
2019-03-01T05:00:29.650Z,9.70
2019-03-01T05:03:01.499Z,9.70
2019-03-01T05:05:33.771Z,9.70
2019-03-01T05:08:04.889Z,9.70
2019-03-01T05:10:37.982Z,9.60
2019-03-01T05:13:09.603Z,9.60
2019-03-01T05:15:41.039Z,9.70
2019-03-01T05:18:12.858Z,9.70
2019-03-01T05:20:45.860Z,9.60
2019-03-01T05:23:17.576Z,9.70
2019-03-01T05:25:48.649Z,9.60
2019-03-01T05:28:19.958Z,9.50
2019-03-01T05:30:51.447Z,9.50
2019-03-01T05:33:22.777Z,9.60
2019-03-01T05:35:54.238Z,9.50
2019-03-01T05:38:25.829Z,9.60
2019-03-01T05:40:57.690Z,9.70
2019-03-01T05:43:28.718Z,9.70
2019-03-01T05:46:01.177Z,9.70
2019-03-01T05:48:32.291Z,9.70
2019-03-01T05:51:04.605Z,9.70
2019-03-01T05:53:35.763Z,9.70
2019-03-01T05:56:07.514Z,9.70
2019-03-01T05:59:07.803Z,9.70
2019-03-01T06:01:52.724Z,9.70
2019-03-01T06:04:53.816Z,9.70
2019-03-01T06:07:52.887Z,9.60
2019-03-01T06:10:57.326Z,9.60
2019-03-01T06:14:13.622Z,9.60
2019-03-01T06:18:01.645Z,9.60
2019-03-01T06:21:34.828Z,9.50
2019-03-01T06:24:56.578Z,9.40
2019-03-01T06:27:51.792Z,9.40
2019-03-01T06:31:08.438Z,9.30
2019-03-01T06:34:21.521Z,9.20
2019-03-01T06:37:36.481Z,9.30
2019-03-01T06:41:13.900Z,9.40
2019-03-01T06:44:41.816Z,9.40
2019-03-01T06:47:51.158Z,9.50
2019-03-01T06:50:50.297Z,9.60
2019-03-01T06:53:21.668Z,9.70
2019-03-01T06:56:00.122Z,9.80
2019-03-01T06:58:45.220Z,9.90
2019-03-01T07:01:18.946Z,10.00
2019-03-01T07:03:55.735Z,10.20
2019-03-01T07:06:26.975Z,10.40
2019-03-01T07:08:58.273Z,10.50
2019-03-01T07:11:30.722Z,10.70
2019-03-01T07:14:02.050Z,10.80
2019-03-01T07:16:33.387Z,10.90
2019-03-01T07:19:05.101Z,10.90
2019-03-01T07:21:36.766Z,10.90
2019-03-01T07:24:08.101Z,11.00
2019-03-01T07:26:39.775Z,10.90
2019-03-01T07:29:11.049Z,10.90
2019-03-01T07:31:42.689Z,10.80
2019-03-01T07:34:14.433Z,10.70
2019-03-01T07:36:46.279Z,10.70
2019-03-01T07:39:18.196Z,10.70
2019-03-01T07:41:49.926Z,10.70
2019-03-01T07:44:21.824Z,10.70
2019-03-01T07:46:54.327Z,10.80
2019-03-01T07:49:25.727Z,10.80
2019-03-01T07:51:57.576Z,10.80
2019-03-01T07:54:28.587Z,10.80
2019-03-01T07:57:00.238Z,10.80
2019-03-01T07:59:33.455Z,10.60
2019-03-01T08:02:05.487Z,10.60
2019-03-01T08:04:38.012Z,10.50
2019-03-01T08:07:11.035Z,10.50
2019-03-01T08:09:44.750Z,10.50
2019-03-01T08:12:15.941Z,10.50
2019-03-01T08:14:47.232Z,10.50
2019-03-01T08:17:20.128Z,10.60
2019-03-01T08:19:54.857Z,10.80
2019-03-01T08:22:25.981Z,11.00
2019-03-01T08:24:57.398Z,11.10
2019-03-01T08:27:28.745Z,11.30
2019-03-01T08:30:00.281Z,11.30
2019-03-01T08:32:32.147Z,11.30
2019-03-01T08:35:05.923Z,11.40
2019-03-01T08:37:38.071Z,11.30
2019-03-01T08:40:14.646Z,11.30
2019-03-01T08:42:47.378Z,11.20
2019-03-01T08:45:19.117Z,11.20
2019-03-01T08:47:50.792Z,11.20
2019-03-01T08:50:22.967Z,11.20
2019-03-01T08:52:54.703Z,11.10
2019-03-01T08:55:26.553Z,11.20
2019-03-01T08:57:59.429Z,11.10
2019-03-01T09:00:32.319Z,11.20
2019-03-01T09:03:10.974Z,11.20
2019-03-01T09:05:43.213Z,11.20
2019-03-01T09:08:14.740Z,11.20
2019-03-01T09:10:46.124Z,11.10
2019-03-01T09:13:17.440Z,11.00
2019-03-01T09:15:49.472Z,11.00
2019-03-01T09:18:21.704Z,11.00
2019-03-01T09:20:52.760Z,10.90
2019-03-01T09:23:27.284Z,10.80
2019-03-01T09:25:57.656Z,10.90
2019-03-01T09:28:29.234Z,10.80
2019-03-01T09:31:00.899Z,10.70
2019-03-01T09:33:32.741Z,10.60
2019-03-01T09:36:11.110Z,10.50
2019-03-01T09:38:43.704Z,10.50
2019-03-01T09:41:15.656Z,10.60
2019-03-01T09:43:46.931Z,10.60
2019-03-01T09:46:20.936Z,10.60
2019-03-01T09:48:52.671Z,10.70
2019-03-01T09:51:24.762Z,10.90
2019-03-01T09:53:56.082Z,10.90
2019-03-01T09:56:27.443Z,10.80
2019-03-01T09:58:58.451Z,10.80
2019-03-01T10:01:29.740Z,10.70
2019-03-01T10:04:02.059Z,10.60
2019-03-01T10:06:38.152Z,10.70
2019-03-01T10:09:11.836Z,10.70
2019-03-01T10:11:43.333Z,10.80
2019-03-01T10:14:15.498Z,10.90
2019-03-01T10:16:46.839Z,11.00
2019-03-01T10:19:18.193Z,11.00
2019-03-01T10:21:49.896Z,11.00
2019-03-01T10:24:21.319Z,11.00
2019-03-01T10:26:52.643Z,11.00
2019-03-01T10:29:24.100Z,10.90
2019-03-01T10:31:56.111Z,10.80
2019-03-01T10:34:27.944Z,10.70
2019-03-01T10:36:59.822Z,10.70
2019-03-01T10:39:31.117Z,10.80
2019-03-01T10:42:02.171Z,10.90
2019-03-01T10:44:33.414Z,11.10
2019-03-01T10:47:04.681Z,11.30
2019-03-01T10:49:35.990Z,11.50
2019-03-01T10:52:07.336Z,11.60
2019-03-01T10:54:38.616Z,11.80
2019-03-01T10:57:10.321Z,11.90
2019-03-01T10:59:42.203Z,12.00
2019-03-01T11:02:14.067Z,12.00
2019-03-01T11:04:45.394Z,11.90
2019-03-01T11:07:17.608Z,12.10
2019-03-01T11:09:49.223Z,12.20
2019-03-01T11:12:21.308Z,12.10
2019-03-01T11:14:53.067Z,11.90
2019-03-01T11:17:24.877Z,11.90
2019-03-01T11:19:56.463Z,11.80
2019-03-01T11:22:28.108Z,11.80
2019-03-01T11:24:59.150Z,11.80
2019-03-01T11:27:30.779Z,11.80
2019-03-01T11:30:02.101Z,11.60
2019-03-01T11:32:34.353Z,11.50
2019-03-01T11:35:05.975Z,11.50
2019-03-01T11:37:37.407Z,11.40
2019-03-01T11:40:11.991Z,11.30
2019-03-01T11:42:43.633Z,11.30
2019-03-01T11:45:15.779Z,11.10
2019-03-01T11:47:48.315Z,10.90
2019-03-01T11:50:21.968Z,10.70
2019-03-01T11:52:53.021Z,10.70
2019-03-01T11:55:24.559Z,10.50
2019-03-01T11:57:56.212Z,10.30
2019-03-01T12:00:27.479Z,10.10
2019-03-01T12:02:59.410Z,9.90
2019-03-01T12:05:31.172Z,9.80
2019-03-01T12:08:02.229Z,9.60
2019-03-01T12:10:34.054Z,9.50
2019-03-01T12:13:05.886Z,9.50
2019-03-01T12:15:37.997Z,9.40
2019-03-01T12:18:09.299Z,9.40
2019-03-01T12:20:40.597Z,9.30
2019-03-01T12:23:12.236Z,9.20
2019-03-01T12:25:43.622Z,9.20
2019-03-01T12:28:14.698Z,9.20
2019-03-01T12:30:46.843Z,9.20
2019-03-01T12:33:18.245Z,9.20
2019-03-01T12:35:49.853Z,9.20
2019-03-01T12:38:21.397Z,9.10
2019-03-01T12:40:53.210Z,9.00
2019-03-01T12:43:24.516Z,9.00
2019-03-01T12:45:56.211Z,9.00
2019-03-01T12:48:27.546Z,8.90
2019-03-01T12:50:59.197Z,8.90
2019-03-01T12:53:30.515Z,8.90
2019-03-01T12:56:01.863Z,9.10
2019-03-01T12:58:33.199Z,9.50
2019-03-01T13:01:05.115Z,9.80
2019-03-01T13:03:36.466Z,10.10
2019-03-01T13:06:08.507Z,10.20
2019-03-01T13:08:40.055Z,10.20
2019-03-01T13:11:15.978Z,10.30
2019-03-01T13:13:45.629Z,10.30
2019-03-01T13:16:17.311Z,10.20
2019-03-01T13:18:51.293Z,10.30
2019-03-01T13:21:22.649Z,10.30
2019-03-01T13:23:54.312Z,10.30
2019-03-01T13:26:25.945Z,10.30
2019-03-01T13:28:58.046Z,10.20
2019-03-01T13:31:30.149Z,10.10
2019-03-01T13:34:06.283Z,10.00
2019-03-01T13:36:40.541Z,9.90
2019-03-01T13:39:16.765Z,9.70
2019-03-01T13:41:51.753Z,9.60
2019-03-01T13:44:24.031Z,9.40
2019-03-01T13:46:55.363Z,9.30
2019-03-01T13:49:30.279Z,9.10
2019-03-01T13:52:00.032Z,9.00
2019-03-01T13:54:31.588Z,8.80
2019-03-01T13:57:03.212Z,8.80
2019-03-01T13:59:37.548Z,8.70
2019-03-01T14:02:09.597Z,8.70
2019-03-01T14:04:41.407Z,8.60
2019-03-01T14:07:14.414Z,8.60
2019-03-01T14:09:46.397Z,8.40
2019-03-01T14:12:18.170Z,8.40
2019-03-01T14:14:49.282Z,8.30
2019-03-01T14:17:24.462Z,8.20
2019-03-01T14:19:54.390Z,8.10
2019-03-01T14:22:26.178Z,8.00
2019-03-01T14:24:57.475Z,7.90
2019-03-01T14:27:29.544Z,7.90
2019-03-01T14:30:01.977Z,7.80
2019-03-01T14:32:34.891Z,7.70
2019-03-01T14:35:06.565Z,7.60
2019-03-01T14:37:37.967Z,7.60
2019-03-01T14:40:11.271Z,7.40
2019-03-01T14:42:46.413Z,7.40
2019-03-01T14:45:22.263Z,7.40
2019-03-01T14:47:54.062Z,7.40
2019-03-01T14:50:26.208Z,7.40
2019-03-01T14:52:58.878Z,7.30
2019-03-01T14:55:35.322Z,7.20
2019-03-01T14:58:12.493Z,7.00
2019-03-01T15:00:52.898Z,6.90
2019-03-01T15:03:33.929Z,6.90
2019-03-01T15:06:06.696Z,6.80
2019-03-01T15:08:40.479Z,6.80
2019-03-01T15:11:16.914Z,6.70
2019-03-01T15:13:49.820Z,6.60
2019-03-01T15:16:21.550Z,6.50
2019-03-01T15:18:53.168Z,6.40
2019-03-01T15:21:24.911Z,6.30
2019-03-01T15:24:00.101Z,6.20
2019-03-01T15:26:29.048Z,6.20
2019-03-01T15:29:00.498Z,6.20
2019-03-01T15:31:32.801Z,6.20
2019-03-01T15:34:04.152Z,6.10
2019-03-01T15:36:35.698Z,6.10
2019-03-01T15:39:08.454Z,6.20
2019-03-01T15:41:42.060Z,6.10
2019-03-01T15:44:13.715Z,6.10
2019-03-01T15:46:46.326Z,6.00
2019-03-01T15:49:23.543Z,6.00
2019-03-01T15:51:52.998Z,6.00
2019-03-01T15:54:24.617Z,6.00
2019-03-01T15:56:56.641Z,5.90
2019-03-01T15:59:28.895Z,5.90
2019-03-01T16:02:00.304Z,5.90
2019-03-01T16:04:33.625Z,5.90
2019-03-01T16:07:05.673Z,5.90
2019-03-01T16:09:36.695Z,5.90
2019-03-01T16:12:08.137Z,5.80
2019-03-01T16:14:39.328Z,5.80
2019-03-01T16:17:10.811Z,5.80
2019-03-01T16:19:42.172Z,5.80
2019-03-01T16:22:15.414Z,5.80
2019-03-01T16:24:47.545Z,5.80
2019-03-01T16:27:19.557Z,5.80
2019-03-01T16:29:52.628Z,5.80
2019-03-01T16:32:24.338Z,5.80
2019-03-01T16:34:56.052Z,5.80
2019-03-01T16:37:28.672Z,5.80
2019-03-01T16:40:01.560Z,5.80
2019-03-01T16:42:45.243Z,5.80
2019-03-01T16:45:22.457Z,5.70
2019-03-01T16:48:00.846Z,5.70
2019-03-01T16:50:34.930Z,5.70
2019-03-01T16:53:06.586Z,5.70
2019-03-01T16:55:38.002Z,5.60
2019-03-01T16:58:09.945Z,5.50
2019-03-01T17:00:42.018Z,5.40
2019-03-01T17:03:17.887Z,5.20
2019-03-01T17:05:48.435Z,5.10
2019-03-01T17:08:20.669Z,5.00
2019-03-01T17:10:52.030Z,5.00
2019-03-01T17:13:26.877Z,5.00
2019-03-01T17:15:56.859Z,5.00
2019-03-01T17:18:28.308Z,5.00
2019-03-01T17:20:59.723Z,5.00
2019-03-01T17:23:31.910Z,5.00
2019-03-01T17:26:03.887Z,5.00
2019-03-01T17:28:36.040Z,5.00
2019-03-01T17:31:08.036Z,5.00
2019-03-01T17:33:40.598Z,5.00
2019-03-01T17:36:12.995Z,5.00
2019-03-01T17:38:46.216Z,5.00
2019-03-01T17:41:18.764Z,5.00
2019-03-01T17:43:50.767Z,5.00
2019-03-01T17:46:22.844Z,5.00
2019-03-01T17:48:57.307Z,5.00
2019-03-01T17:51:28.904Z,5.00
2019-03-01T17:54:00.990Z,5.00
2019-03-01T17:56:33.357Z,5.10
2019-03-01T17:59:08.389Z,5.10
2019-03-01T18:01:40.313Z,5.10
2019-03-01T18:04:12.137Z,5.10
2019-03-01T18:06:43.572Z,5.10
2019-03-01T18:09:16.158Z,5.10
2019-03-01T18:11:48.300Z,5.10
2019-03-01T18:14:21.856Z,5.10
2019-03-01T18:16:53.493Z,5.10
2019-03-01T18:19:26.622Z,5.10
2019-03-01T18:21:58.893Z,5.00
2019-03-01T18:24:31.080Z,5.00
2019-03-01T18:27:02.944Z,5.00
2019-03-01T18:29:35.629Z,5.00
2019-03-01T18:32:10.025Z,5.00
2019-03-01T18:34:40.770Z,5.00
2019-03-01T18:37:19.435Z,5.00
2019-03-01T18:39:45.649Z,5.00
2019-03-01T18:42:17.568Z,5.00
2019-03-01T18:44:48.901Z,5.00
2019-03-01T18:47:21.451Z,5.00
2019-03-01T18:49:55.196Z,5.00
2019-03-01T18:52:26.274Z,5.00
2019-03-01T18:54:58.852Z,5.00
2019-03-01T18:57:30.202Z,5.00
2019-03-01T19:00:01.840Z,5.00
2019-03-01T19:02:35.723Z,4.90
2019-03-01T19:05:07.252Z,4.90
2019-03-01T19:07:39.469Z,4.90
2019-03-01T19:10:11.940Z,4.90
2019-03-01T19:12:44.917Z,4.90
2019-03-01T19:15:17.265Z,4.90
2019-03-01T19:17:48.934Z,4.90
2019-03-01T19:20:23.360Z,4.90
2019-03-01T19:22:55.826Z,4.90
2019-03-01T19:25:27.283Z,4.90
2019-03-01T19:27:59.396Z,5.00
2019-03-01T19:30:35.786Z,5.00
2019-03-01T19:33:07.359Z,5.00
2019-03-01T19:35:39.140Z,4.90
2019-03-01T19:38:11.360Z,4.90
2019-03-01T19:40:43.380Z,4.90
2019-03-01T19:43:17.200Z,4.90
2019-03-01T19:45:49.298Z,4.90
2019-03-01T19:48:21.603Z,4.90
2019-03-01T19:50:53.252Z,4.90
2019-03-01T19:53:26.464Z,4.80
2019-03-01T19:55:58.620Z,4.90
2019-03-01T19:58:30.051Z,4.90
2019-03-01T20:01:02.098Z,4.90
2019-03-01T20:03:34.536Z,4.90
2019-03-01T20:06:08.036Z,4.90
2019-03-01T20:08:40.231Z,4.80
2019-03-01T20:11:12.110Z,4.90
2019-03-01T20:13:44.522Z,4.80
2019-03-01T20:16:16.422Z,4.80
2019-03-01T20:18:48.113Z,4.80
2019-03-01T20:21:19.771Z,4.80
2019-03-01T20:23:51.186Z,4.80
2019-03-01T20:26:23.542Z,4.90
2019-03-01T20:28:56.455Z,4.90
2019-03-01T20:31:28.916Z,4.90
2019-03-01T20:34:01.888Z,4.90
2019-03-01T20:36:34.091Z,4.90
2019-03-01T20:39:07.275Z,4.90
2019-03-01T20:41:46.136Z,4.90
2019-03-01T20:44:18.799Z,4.90
2019-03-01T20:46:48.493Z,4.90
2019-03-01T20:49:20.278Z,4.90
2019-03-01T20:51:52.450Z,4.90
2019-03-01T20:54:25.782Z,5.00
2019-03-01T20:56:58.320Z,5.00
2019-03-01T20:59:29.760Z,5.10
2019-03-01T21:02:01.644Z,5.10
2019-03-01T21:04:36.620Z,5.10
2019-03-01T21:07:07.038Z,5.00
2019-03-01T21:09:40.526Z,5.00
2019-03-01T21:12:11.939Z,4.90
2019-03-01T21:14:43.460Z,5.00
2019-03-01T21:17:16.708Z,5.00
2019-03-01T21:19:49.467Z,5.00
2019-03-01T21:22:21.083Z,5.00
2019-03-01T21:25:10.977Z,5.00
2019-03-01T21:27:43.830Z,5.00
2019-03-01T21:30:27.062Z,5.00
2019-03-01T21:32:59.371Z,5.00
2019-03-01T21:35:30.780Z,5.00
2019-03-01T21:38:03.736Z,5.00
2019-03-01T21:40:35.661Z,5.00
2019-03-01T21:43:07.057Z,5.00
2019-03-01T21:45:38.853Z,5.00
2019-03-01T21:48:10.368Z,5.00
2019-03-01T21:50:43.521Z,5.00
2019-03-01T21:53:15.667Z,4.90
2019-03-01T21:55:47.730Z,5.00
2019-03-01T21:58:19.216Z,5.00
2019-03-01T22:00:50.941Z,5.00
2019-03-01T22:03:24.841Z,5.00
2019-03-01T22:05:56.714Z,5.00
2019-03-01T22:08:28.522Z,5.00
2019-03-01T22:11:00.243Z,5.00
2019-03-01T22:13:32.517Z,5.00
2019-03-01T22:16:04.737Z,5.00
2019-03-01T22:18:36.491Z,5.00
2019-03-01T22:21:07.990Z,5.00
2019-03-01T22:23:40.026Z,5.00
2019-03-01T22:26:13.657Z,5.00
2019-03-01T22:28:45.532Z,5.00
2019-03-01T22:31:18.247Z,5.00
2019-03-01T22:33:52.634Z,5.00
2019-03-01T22:36:23.173Z,5.00
2019-03-01T22:38:54.760Z,5.00
2019-03-01T22:41:26.340Z,5.10
2019-03-01T22:43:58.381Z,5.10
2019-03-01T22:46:31.653Z,5.00
2019-03-01T22:49:03.384Z,5.00
2019-03-01T22:51:35.388Z,5.00
2019-03-01T22:54:07.057Z,5.00
2019-03-01T22:56:38.912Z,5.00
2019-03-01T22:59:11.902Z,5.00
2019-03-01T23:01:44.964Z,5.00
2019-03-01T23:04:16.898Z,5.00
2019-03-01T23:06:51.517Z,5.00
2019-03-01T23:09:21.841Z,5.00
2019-03-01T23:11:53.777Z,5.00
2019-03-01T23:14:27.379Z,5.00
2019-03-01T23:16:57.532Z,5.10
2019-03-01T23:19:28.830Z,5.00
2019-03-01T23:22:00.421Z,5.10
2019-03-01T23:24:35.141Z,5.00
2019-03-01T23:27:05.429Z,5.00
2019-03-01T23:29:37.582Z,5.00
2019-03-01T23:32:11.904Z,5.00
2019-03-01T23:34:43.676Z,5.00
2019-03-01T23:37:15.814Z,5.00
2019-03-01T23:39:47.151Z,5.00
2019-03-01T23:42:20.893Z,5.00
2019-03-01T23:44:51.847Z,5.00
2019-03-01T23:47:23.155Z,5.00
2019-03-01T23:49:55.630Z,4.90
2019-03-01T23:52:26.859Z,4.90
2019-03-01T23:54:58.292Z,4.90
2019-03-01T23:57:30.406Z,4.90
